< < Back
Terminal Aerodrome Forecast


Current Version              Previous Versions:   1  2  3  4  5  6  7  8  9  

Terminal Aerodrome Forecast

411
FTUS42 KILM 182300 CCA
TAFILM
TAF COR
KILM 182357Z 1900/1924 05008KT 5SM -RA OVC030
     FM190300 04009KT 4SM RA BR OVC015
     FM190500 03011KT 3SM RA BR OVC007
     FM191800 02013G20KT 6SM -RA BKN007 OVC015=

Latest METAR

444
SAUS70 KWBC 190400 RRB
MTRILM
METAR KILM 190353Z AUTO 04012KT 4SM -RA BR BKN008 OVC021 12/11 A3015 RMK
AO2 RAE04B44 SLP210 P0000 T01220106


USA.gov is the U.S. government's official web portal to all federal, state and local government web resources and services.